createdAt,value
2018-07-05T00:00:41.466Z,13.30
2018-07-05T00:03:22.673Z,13.30
2018-07-05T00:06:04.932Z,13.30
2018-07-05T00:08:45.810Z,13.40
2018-07-05T00:11:26.890Z,13.50
2018-07-05T00:14:07.785Z,13.50
2018-07-05T00:16:48.767Z,13.60
2018-07-05T00:19:29.389Z,13.60
2018-07-05T00:22:10.671Z,13.70
2018-07-05T00:24:51.604Z,13.70
2018-07-05T00:27:32.728Z,13.80
2018-07-05T00:30:13.446Z,13.80
2018-07-05T00:32:54.611Z,13.80
2018-07-05T00:35:35.495Z,13.80
2018-07-05T00:38:18.560Z,13.80
2018-07-05T00:40:59.154Z,13.90
2018-07-05T00:43:40.048Z,14.00
2018-07-05T00:49:06.871Z,14.00
2018-07-05T00:51:47.693Z,14.10
2018-07-05T00:54:28.763Z,14.10
2018-07-05T00:57:09.859Z,14.10
2018-07-05T00:59:54.178Z,14.20
2018-07-05T01:02:34.785Z,14.20
2018-07-05T01:05:15.626Z,14.20
2018-07-05T01:07:55.858Z,14.20
2018-07-05T01:10:36.750Z,14.20
2018-07-05T01:13:17.443Z,14.20
2018-07-05T01:15:58.886Z,14.20
2018-07-05T01:18:39.798Z,14.20
2018-07-05T01:21:24.109Z,14.30
2018-07-05T01:24:05.238Z,14.30
2018-07-05T01:26:46.482Z,14.30
2018-07-05T01:29:27.738Z,14.30
2018-07-05T01:32:08.914Z,14.30
2018-07-05T01:34:49.903Z,14.30
2018-07-05T01:37:30.840Z,14.30
2018-07-05T01:40:11.676Z,14.30
2018-07-05T01:42:56.702Z,14.30
2018-07-05T01:45:37.543Z,14.40
2018-07-05T01:48:18.340Z,14.40
2018-07-05T01:50:59.529Z,14.40
2018-07-05T01:53:40.435Z,14.40
2018-07-05T01:56:21.104Z,14.40
2018-07-05T01:59:02.475Z,14.40
2018-07-05T02:01:43.242Z,14.40
2018-07-05T02:04:24.791Z,14.40
2018-07-05T02:09:51.545Z,14.50
2018-07-05T02:12:32.630Z,14.50
2018-07-05T02:15:13.348Z,14.50
2018-07-05T02:17:53.697Z,14.50
2018-07-05T02:20:35.790Z,14.50
2018-07-05T02:23:16.599Z,14.50
2018-07-05T02:25:58.464Z,14.50
2018-07-05T02:28:39.597Z,14.50
2018-07-05T02:31:20.895Z,14.50
2018-07-05T02:34:06.842Z,14.50
2018-07-05T02:36:47.735Z,14.50
2018-07-05T02:39:32.747Z,14.50
2018-07-05T02:42:13.707Z,14.40
2018-07-05T02:44:55.619Z,14.40
2018-07-05T02:47:36.630Z,14.50
2018-07-05T02:50:17.434Z,14.60
2018-07-05T02:52:58.271Z,14.70
2018-07-05T02:55:39.342Z,14.90
2018-07-05T02:58:20.754Z,14.90
2018-07-05T03:01:01.279Z,14.90
2018-07-05T03:03:42.534Z,14.90
2018-07-05T03:06:23.452Z,14.90
2018-07-05T03:09:04.286Z,14.90
2018-07-05T03:11:44.979Z,15.00
2018-07-05T03:14:26.214Z,15.00
2018-07-05T03:17:07.503Z,15.10
2018-07-05T03:19:48.425Z,15.20
2018-07-05T03:22:29.505Z,15.10
2018-07-05T03:25:10.451Z,15.10
2018-07-05T03:27:51.226Z,15.10
2018-07-05T03:30:32.950Z,15.10
2018-07-05T03:33:14.214Z,15.20
2018-07-05T03:35:55.023Z,15.20
2018-07-05T03:38:36.362Z,15.30
2018-07-05T03:41:17.758Z,15.40
2018-07-05T03:43:58.490Z,15.70
2018-07-05T03:46:39.894Z,16.00
2018-07-05T03:49:20.338Z,16.30
2018-07-05T03:52:02.092Z,16.40
2018-07-05T03:54:45.301Z,16.60
2018-07-05T03:57:26.700Z,16.60
2018-07-05T04:00:07.483Z,16.70
2018-07-05T04:02:48.337Z,16.60
2018-07-05T04:05:28.508Z,16.70
2018-07-05T04:08:09.299Z,16.70
2018-07-05T04:10:50.484Z,16.60
2018-07-05T04:13:32.588Z,16.60
2018-07-05T04:16:13.301Z,16.50
2018-07-05T04:18:55.411Z,16.60
2018-07-05T04:21:36.694Z,16.60
2018-07-05T04:24:17.530Z,16.70
2018-07-05T04:26:58.342Z,16.80
2018-07-05T04:29:39.264Z,17.00
2018-07-05T04:32:20.317Z,17.10
2018-07-05T04:35:01.867Z,17.30
2018-07-05T04:37:42.630Z,17.40
2018-07-05T04:40:22.642Z,17.40
2018-07-05T04:45:49.039Z,17.30
2018-07-05T04:48:29.499Z,17.40
2018-07-05T04:51:10.611Z,17.60
2018-07-05T04:53:51.714Z,17.60
2018-07-05T04:56:33.255Z,17.60
2018-07-05T04:59:13.923Z,17.70
2018-07-05T05:01:54.303Z,17.90
2018-07-05T05:04:35.038Z,18.10
2018-07-05T05:07:16.346Z,18.20
2018-07-05T05:09:57.330Z,18.40
2018-07-05T05:12:38.556Z,18.60
2018-07-05T05:15:18.542Z,18.70
2018-07-05T05:18:00.453Z,18.80
2018-07-05T05:20:42.083Z,18.90
2018-07-05T05:23:22.970Z,18.90
2018-07-05T05:26:03.682Z,19.10
2018-07-05T05:28:44.725Z,19.20
2018-07-05T05:31:26.498Z,19.00
2018-07-05T05:34:07.135Z,18.90
2018-07-05T05:36:48.448Z,18.80
2018-07-05T05:39:29.695Z,18.60
2018-07-05T05:42:09.674Z,18.50
2018-07-05T05:44:50.433Z,18.40
2018-07-05T05:47:31.526Z,18.40
2018-07-05T05:50:13.869Z,18.40
2018-07-05T05:52:55.091Z,18.40
2018-07-05T05:55:37.216Z,18.30
2018-07-05T05:58:18.374Z,18.30
2018-07-05T06:01:03.020Z,18.30
2018-07-05T06:03:44.302Z,18.30
2018-07-05T06:06:25.766Z,18.30
2018-07-05T06:09:06.826Z,18.30
2018-07-05T06:11:48.268Z,18.30
2018-07-05T06:14:28.499Z,18.30
2018-07-05T06:17:10.055Z,18.20
2018-07-05T06:19:50.788Z,18.20
2018-07-05T06:22:31.955Z,18.20
2018-07-05T06:25:12.934Z,18.40
2018-07-05T06:27:53.371Z,18.40
2018-07-05T06:30:34.443Z,18.50
2018-07-05T06:33:15.319Z,18.50
2018-07-05T06:35:56.069Z,18.50
2018-07-05T06:38:36.828Z,18.50
2018-07-05T06:41:17.639Z,18.60
2018-07-05T06:43:58.986Z,18.60
2018-07-05T06:46:39.238Z,18.70
2018-07-05T06:49:20.900Z,18.70
2018-07-05T06:52:01.610Z,18.70
2018-07-05T06:54:44.294Z,18.80
2018-07-05T06:57:25.426Z,18.80
2018-07-05T07:00:06.570Z,18.80
2018-07-05T07:02:47.818Z,18.80
2018-07-05T07:05:29.181Z,18.90
2018-07-05T07:08:10.158Z,18.90
2018-07-05T07:10:50.890Z,19.00
2018-07-05T07:13:31.703Z,19.10
2018-07-05T07:16:14.006Z,19.10
2018-07-05T07:18:54.986Z,19.20
2018-07-05T07:21:35.290Z,19.20
2018-07-05T07:24:15.626Z,19.20
2018-07-05T07:26:56.918Z,19.30
2018-07-05T07:29:37.792Z,19.20
2018-07-05T07:32:18.628Z,19.20
2018-07-05T07:34:59.114Z,19.20
2018-07-05T07:37:40.181Z,19.30
2018-07-05T07:40:20.762Z,19.40
2018-07-05T07:42:49.216Z,19.40
2018-07-05T07:48:27.622Z,19.50
2018-07-05T07:50:55.766Z,19.50
2018-07-05T07:53:24.764Z,19.50
2018-07-05T07:55:53.274Z,19.60
2018-07-05T07:58:21.714Z,19.70
2018-07-05T08:00:50.668Z,19.70
2018-07-05T08:03:19.630Z,19.70
2018-07-05T08:05:48.445Z,19.80
2018-07-05T08:08:16.956Z,19.70
2018-07-05T08:10:45.983Z,19.60
2018-07-05T08:13:14.950Z,19.70
2018-07-05T08:15:43.757Z,19.70
2018-07-05T08:18:12.176Z,19.70
2018-07-05T08:20:41.047Z,19.80
2018-07-05T08:23:09.983Z,19.70
2018-07-05T08:25:37.952Z,19.70
2018-07-05T08:28:06.859Z,19.80
2018-07-05T08:30:36.926Z,19.90
2018-07-05T08:33:05.560Z,20.00
2018-07-05T08:35:34.574Z,19.90
2018-07-05T08:38:03.006Z,19.90
2018-07-05T08:40:31.927Z,20.00
2018-07-05T08:42:59.985Z,20.00
2018-07-05T08:45:28.755Z,20.10
2018-07-05T08:47:57.286Z,20.10
2018-07-05T08:50:25.819Z,20.20
2018-07-05T08:52:53.896Z,20.10
2018-07-05T08:55:23.894Z,20.10
2018-07-05T08:57:52.418Z,20.20
2018-07-05T09:00:22.183Z,20.30
2018-07-05T09:02:50.622Z,20.40
2018-07-05T09:05:19.578Z,20.50
2018-07-05T09:07:48.491Z,20.70
2018-07-05T09:10:17.575Z,20.80
2018-07-05T09:12:46.521Z,20.80
2018-07-05T09:15:15.300Z,20.90
2018-07-05T09:17:43.995Z,21.10
2018-07-05T09:20:11.915Z,21.10
2018-07-05T09:22:40.860Z,21.20
2018-07-05T09:25:09.775Z,21.40
2018-07-05T09:27:37.834Z,21.60
2018-07-05T09:30:05.930Z,21.60
2018-07-05T09:32:34.962Z,21.70
2018-07-05T09:35:09.905Z,21.60
2018-07-05T09:37:38.872Z,21.50
2018-07-05T09:40:08.840Z,21.50
2018-07-05T09:45:10.501Z,21.60
2018-07-05T09:47:39.611Z,21.90
2018-07-05T09:50:07.911Z,21.90
2018-07-05T09:52:36.567Z,21.90
2018-07-05T09:55:04.923Z,21.80
2018-07-05T09:57:33.535Z,21.60
2018-07-05T10:00:02.565Z,21.60
2018-07-05T10:02:31.834Z,21.70
2018-07-05T10:05:00.878Z,21.80
2018-07-05T10:07:29.810Z,21.80
2018-07-05T10:09:58.267Z,22.00
2018-07-05T10:12:27.232Z,22.10
2018-07-05T10:14:56.198Z,22.10
2018-07-05T10:17:32.852Z,22.00
2018-07-05T10:20:01.013Z,21.90
2018-07-05T10:22:29.766Z,22.10
2018-07-05T10:24:58.315Z,22.20
2018-07-05T10:27:26.993Z,22.30
2018-07-05T10:30:07.615Z,22.30
2018-07-05T10:32:48.318Z,22.30
2018-07-05T10:35:16.786Z,22.20
2018-07-05T10:37:46.602Z,22.10
2018-07-05T10:40:26.818Z,22.10
2018-07-05T10:43:07.730Z,22.10
2018-07-05T10:45:48.411Z,22.10
2018-07-05T10:48:29.770Z,22.00
2018-07-05T10:51:11.216Z,22.10
2018-07-05T10:53:52.199Z,22.20
2018-07-05T10:56:32.682Z,22.40
2018-07-05T10:59:13.581Z,22.40
2018-07-05T11:01:54.449Z,22.30
2018-07-05T11:04:34.698Z,22.30
2018-07-05T11:07:15.335Z,22.50
2018-07-05T11:09:55.675Z,22.60
2018-07-05T11:12:36.502Z,22.60
2018-07-05T11:15:17.227Z,22.70
2018-07-05T11:17:57.710Z,22.70
2018-07-05T11:20:41.666Z,22.70
2018-07-05T11:23:23.650Z,22.80
2018-07-05T11:26:03.872Z,23.10
2018-07-05T11:28:44.653Z,23.10
2018-07-05T11:31:25.747Z,23.20
2018-07-05T11:34:06.446Z,23.30
2018-07-05T11:36:46.842Z,23.40
2018-07-05T11:39:28.197Z,23.40
2018-07-05T11:47:54.329Z,23.20
2018-07-05T11:50:35.020Z,23.10
2018-07-05T11:53:15.607Z,23.20
2018-07-05T11:55:56.562Z,23.20
2018-07-05T11:58:37.230Z,23.40
2018-07-05T12:01:18.291Z,23.60
2018-07-05T12:03:58.610Z,23.50
2018-07-05T12:06:42.742Z,23.30
2018-07-05T12:09:22.588Z,23.10
2018-07-05T12:12:03.131Z,22.90
2018-07-05T12:14:44.283Z,22.90
2018-07-05T12:17:25.610Z,23.00
2018-07-05T12:20:07.238Z,23.00
2018-07-05T12:22:48.603Z,22.90
2018-07-05T12:25:28.639Z,23.00
2018-07-05T12:28:09.543Z,23.20
2018-07-05T12:30:50.603Z,23.30
2018-07-05T12:33:31.424Z,23.20
2018-07-05T12:36:12.428Z,23.40
2018-07-05T12:38:53.893Z,23.60
2018-07-05T12:41:35.125Z,23.60
2018-07-05T12:44:15.516Z,23.60
2018-07-05T12:46:56.293Z,23.70
2018-07-05T12:49:37.625Z,23.90
2018-07-05T12:55:17.869Z,23.80
2018-07-05T13:06:59.091Z,23.70
2018-07-05T13:09:39.583Z,24.00
2018-07-05T13:12:21.087Z,24.10
2018-07-05T13:15:02.418Z,24.00
2018-07-05T13:17:43.668Z,23.90
2018-07-05T13:20:24.267Z,23.80
2018-07-05T13:23:05.582Z,23.60
2018-07-05T13:25:46.367Z,23.50
2018-07-05T13:28:27.919Z,23.40
2018-07-05T13:31:09.556Z,23.30
2018-07-05T13:33:56.288Z,23.30
2018-07-05T13:36:37.167Z,23.30
2018-07-05T13:39:20.027Z,23.30
2018-07-05T13:42:01.550Z,23.30
2018-07-05T13:44:41.491Z,23.50
2018-07-05T13:47:22.161Z,23.70
2018-07-05T13:50:03.379Z,23.90
2018-07-05T13:55:48.123Z,24.60
2018-07-05T13:58:28.558Z,24.60
2018-07-05T14:01:09.824Z,24.90
2018-07-05T14:09:56.674Z,25.20
2018-07-05T14:12:37.579Z,25.30
2018-07-05T14:18:22.336Z,25.40
2018-07-05T14:21:03.135Z,25.30
2018-07-05T14:23:44.202Z,24.80
2018-07-05T14:26:25.215Z,24.70
2018-07-05T14:29:06.167Z,24.80
2018-07-05T14:31:48.065Z,24.80
2018-07-05T14:34:29.022Z,24.80
2018-07-05T14:52:15.216Z,25.30
2018-07-05T14:54:56.605Z,25.00
2018-07-05T14:57:38.371Z,24.90
2018-07-05T15:00:18.991Z,24.80
2018-07-05T15:03:01.283Z,24.80
2018-07-05T15:05:42.311Z,24.70
2018-07-05T15:08:23.342Z,24.60
2018-07-05T15:11:04.848Z,24.60
2018-07-05T15:13:45.124Z,24.70
2018-07-05T15:16:25.660Z,24.80
2018-07-05T15:21:54.215Z,24.80
2018-07-05T15:24:35.907Z,24.60
2018-07-05T15:27:16.926Z,24.30
2018-07-05T15:29:59.653Z,24.20
2018-07-05T15:32:41.258Z,24.30
2018-07-05T15:35:25.147Z,24.30
2018-07-05T15:38:06.382Z,24.30
2018-07-05T15:40:47.976Z,24.50
2018-07-05T15:43:29.318Z,24.50
2018-07-05T15:46:10.540Z,24.50
2018-07-05T15:48:52.278Z,24.60
2018-07-05T15:51:33.135Z,24.60
2018-07-05T15:54:14.134Z,24.70
2018-07-05T15:57:01.994Z,24.80
2018-07-05T15:59:43.347Z,24.90
2018-07-05T16:02:24.899Z,25.10
2018-07-05T16:11:11.898Z,25.60
2018-07-05T16:13:53.695Z,25.70
2018-07-05T16:16:35.869Z,25.90
2018-07-05T16:19:17.192Z,26.40
2018-07-05T16:22:01.630Z,27.20
2018-07-05T16:24:42.194Z,27.50
2018-07-05T16:27:26.266Z,28.40
2018-07-05T16:39:09.814Z,28.80
2018-07-05T18:19:39.768Z,33.50
2018-07-05T18:22:31.230Z,31.70
2018-07-05T18:28:11.767Z,27.80
2018-07-05T18:30:55.463Z,26.40
2018-07-05T18:33:37.962Z,25.40
2018-07-05T18:36:19.419Z,24.70
2018-07-05T18:51:07.205Z,22.10
2018-07-05T18:53:48.707Z,21.90
2018-07-05T18:56:29.725Z,21.80
2018-07-05T18:59:11.203Z,21.60
2018-07-05T19:01:53.642Z,21.50
2018-07-05T19:04:35.351Z,21.40
2018-07-05T19:07:16.870Z,21.20
2018-07-05T19:12:52.998Z,21.10
2018-07-05T19:15:36.212Z,20.90
2018-07-05T19:18:19.310Z,20.80
2018-07-05T19:21:00.870Z,20.70
2018-07-05T19:23:43.326Z,20.50
2018-07-05T19:26:26.742Z,20.40
2018-07-05T19:29:07.862Z,20.30
2018-07-05T19:31:49.594Z,20.20
2018-07-05T19:34:32.767Z,20.10
2018-07-05T19:37:15.799Z,20.00
2018-07-05T19:39:57.270Z,19.90
2018-07-05T19:42:39.970Z,19.80
2018-07-05T19:45:21.477Z,19.60
2018-07-05T19:48:03.223Z,19.50
2018-07-05T19:50:44.435Z,19.50
2018-07-05T19:53:25.440Z,19.30
2018-07-05T19:59:00.426Z,19.20
2018-07-05T20:01:42.360Z,19.10
2018-07-05T20:04:22.727Z,19.00
2018-07-05T20:07:04.421Z,18.90
2018-07-05T20:09:45.609Z,18.80
2018-07-05T20:12:26.719Z,18.70
2018-07-05T20:15:07.805Z,18.70
2018-07-05T20:17:50.971Z,18.60
2018-07-05T20:20:33.458Z,18.50
2018-07-05T20:23:14.602Z,18.40
2018-07-05T20:25:55.454Z,18.30
2018-07-05T20:28:37.827Z,18.20
2018-07-05T20:31:19.931Z,18.20
2018-07-05T20:34:02.111Z,18.10
2018-07-05T20:36:43.863Z,18.10
2018-07-05T20:39:25.688Z,18.10
2018-07-05T20:42:08.101Z,18.00
2018-07-05T20:44:49.940Z,17.90
2018-07-05T20:47:31.451Z,17.90
2018-07-05T20:50:13.279Z,17.80
2018-07-05T20:52:54.279Z,17.80
2018-07-05T20:55:38.913Z,17.80
2018-07-05T20:58:21.590Z,17.70
2018-07-05T21:01:03.354Z,17.60
2018-07-05T21:03:50.556Z,17.60
2018-07-05T21:06:32.120Z,17.60
2018-07-05T21:09:13.264Z,17.50
2018-07-05T21:11:57.414Z,17.50
2018-07-05T21:14:39.007Z,17.40
2018-07-05T21:17:20.645Z,17.40
2018-07-05T21:23:01.599Z,17.40
2018-07-05T21:25:42.622Z,17.40
2018-07-05T21:28:24.251Z,17.30
2018-07-05T21:31:05.672Z,17.30
2018-07-05T21:33:49.039Z,17.20
2018-07-05T21:36:30.692Z,17.20
2018-07-05T21:39:12.214Z,17.20
2018-07-05T21:41:55.018Z,17.10
2018-07-05T21:47:32.801Z,17.00
2018-07-05T21:50:14.371Z,17.00
2018-07-05T21:52:55.219Z,17.00
2018-07-05T21:55:36.535Z,16.90
2018-07-05T21:58:18.091Z,16.90
2018-07-05T22:00:58.533Z,16.80
2018-07-05T22:03:39.902Z,16.70
2018-07-05T22:06:23.063Z,16.70
2018-07-05T22:09:03.748Z,16.60
2018-07-05T22:11:44.791Z,16.70
2018-07-05T22:14:25.857Z,16.70
2018-07-05T22:17:11.755Z,16.70
2018-07-05T22:19:57.203Z,16.60
2018-07-05T22:22:43.088Z,16.60
2018-07-05T22:25:28.547Z,16.50
2018-07-05T22:31:09.379Z,16.40
2018-07-05T22:33:49.766Z,16.30
2018-07-05T22:36:30.534Z,16.30
2018-07-05T22:39:15.806Z,16.20
2018-07-05T22:41:58.026Z,16.10
2018-07-05T22:44:39.082Z,16.10
2018-07-05T22:47:20.020Z,16.00
2018-07-05T22:50:01.290Z,16.00
2018-07-05T23:07:10.263Z,15.60
2018-07-05T23:09:51.421Z,15.50
2018-07-05T23:12:32.875Z,15.40
2018-07-05T23:15:13.822Z,15.30
2018-07-05T23:17:55.246Z,15.30
2018-07-05T23:20:36.175Z,15.30
2018-07-05T23:23:17.724Z,15.20
2018-07-05T23:25:59.195Z,15.10
2018-07-05T23:49:12.279Z,14.50
2018-07-05T23:51:53.286Z,14.40
2018-07-05T23:54:34.826Z,14.40
2018-07-05T23:57:15.859Z,14.30
2018-07-05T23:59:58.398Z,14.30
